sensor_id;sensor_type;location;lat;lon;timestamp;temperature;humidity
16060;DHT22;8134;49.552;7.632;2023-06-22T07:30:47;23.80;99.90
16060;DHT22;8134;49.552;7.632;2023-06-22T07:33:19;23.90;99.90
16060;DHT22;8134;49.552;7.632;2023-06-22T07:35:44;24.00;99.90
16060;DHT22;8134;49.552;7.632;2023-06-22T07:38:16;24.00;99.90
16060;DHT22;8134;49.552;7.632;2023-06-22T07:40:51;24.00;99.90
16060;DHT22;8134;49.552;7.632;2023-06-22T07:43:18;24.10;99.90
16060;DHT22;8134;49.552;7.632;2023-06-22T07:45:53;24.10;99.90
16060;DHT22;8134;49.552;7.632;2023-06-22T07:48:20;24.10;99.90
16060;DHT22;8134;49.552;7.632;2023-06-22T07:50:50;24.10;99.90
16060;DHT22;8134;49.552;7.632;2023-06-22T07:53:21;24.10;99.90
16060;DHT22;8134;49.552;7.632;2023-06-22T07:55:49;24.10;99.90
16060;DHT22;8134;49.552;7.632;2023-06-22T07:58:15;24.10;99.90
16060;DHT22;8134;49.552;7.632;2023-06-22T08:00:44;24.20;99.90
16060;DHT22;8134;49.552;7.632;2023-06-22T08:03:09;24.30;99.90
16060;DHT22;8134;49.552;7.632;2023-06-22T08:05:40;24.40;99.90
16060;DHT22;8134;49.552;7.632;2023-06-22T08:08:18;24.40;99.90
16060;DHT22;8134;49.552;7.632;2023-06-22T08:11:00;24.60;99.90
16060;DHT22;8134;49.552;7.632;2023-06-22T08:13:27;24.70;99.90
16060;DHT22;8134;49.552;7.632;2023-06-22T08:15:54;24.70;99.90
16060;DHT22;8134;49.552;7.632;2023-06-22T08:18:20;24.90;99.90
16060;DHT22;8134;49.552;7.632;2023-06-22T08:20:45;25.00;99.90
16060;DHT22;8134;49.552;7.632;2023-06-22T08:23:11;25.10;99.90
16060;DHT22;8134;49.552;7.632;2023-06-22T08:25:37;25.20;99.90
16060;DHT22;8134;49.552;7.632;2023-06-22T08:28:04;25.20;99.90
16060;DHT22;8134;49.552;7.632;2023-06-22T08:30:30;25.30;99.90
16060;DHT22;8134;49.552;7.632;2023-06-22T08:32:57;25.40;99.90
16060;DHT22;8134;49.552;7.632;2023-06-22T08:35:23;25.50;99.90
16060;DHT22;8134;49.552;7.632;2023-06-22T08:37:48;25.60;99.90
16060;DHT22;8134;49.552;7.632;2023-06-22T08:40:18;25.60;99.90
16060;DHT22;8134;49.552;7.632;2023-06-22T08:42:45;25.60;99.90
16060;DHT22;8134;49.552;7.632;2023-06-22T08:45:11;25.60;99.90
16060;DHT22;8134;49.552;7.632;2023-06-22T08:47:37;25.70;99.90
16060;DHT22;8134;49.552;7.632;2023-06-22T08:50:03;25.70;99.90
16060;DHT22;8134;49.552;7.632;2023-06-22T08:52:29;25.70;99.90
16060;DHT22;8134;49.552;7.632;2023-06-22T08:54:55;25.60;99.90
16060;DHT22;8134;49.552;7.632;2023-06-22T08:57:21;25.60;99.90
16060;DHT22;8134;49.552;7.632;2023-06-22T08:59:46;25.60;99.90
16060;DHT22;8134;49.552;7.632;2023-06-22T09:02:12;25.70;99.90
16060;DHT22;8134;49.552;7.632;2023-06-22T09:04:38;25.70;99.90
16060;DHT22;8134;49.552;7.632;2023-06-22T09:07:04;25.70;99.90
16060;DHT22;8134;49.552;7.632;2023-06-22T09:09:29;25.80;99.90
16060;DHT22;8134;49.552;7.632;2023-06-22T09:11:55;25.80;99.90
16060;DHT22;8134;49.552;7.632;2023-06-22T09:14:21;25.90;99.90
16060;DHT22;8134;49.552;7.632;2023-06-22T09:16:46;25.90;99.90
16060;DHT22;8134;49.552;7.632;2023-06-22T09:19:12;26.00;99.90
16060;DHT22;8134;49.552;7.632;2023-06-22T09:21:38;26.00;99.90
16060;DHT22;8134;49.552;7.632;2023-06-22T09:24:05;26.10;99.90
16060;DHT22;8134;49.552;7.632;2023-06-22T09:26:31;26.20;99.90
16060;DHT22;8134;49.552;7.632;2023-06-22T09:28:56;26.30;99.90
16060;DHT22;8134;49.552;7.632;2023-06-22T09:31:23;26.40;99.90
16060;DHT22;8134;49.552;7.632;2023-06-22T09:33:55;26.50;99.90
16060;DHT22;8134;49.552;7.632;2023-06-22T09:36:21;26.60;99.90
16060;DHT22;8134;49.552;7.632;2023-06-22T09:38:47;26.60;99.90
16060;DHT22;8134;49.552;7.632;2023-06-22T09:41:13;26.70;99.90
16060;DHT22;8134;49.552;7.632;2023-06-22T09:43:39;26.70;99.90
16060;DHT22;8134;49.552;7.632;2023-06-22T09:46:04;26.80;99.90
16060;DHT22;8134;49.552;7.632;2023-06-22T09:48:31;26.80;99.90
16060;DHT22;8134;49.552;7.632;2023-06-22T09:50:56;27.00;99.90
16060;DHT22;8134;49.552;7.632;2023-06-22T09:53:22;27.00;99.90
16060;DHT22;8134;49.552;7.632;2023-06-22T09:55:49;27.00;99.90
16060;DHT22;8134;49.552;7.632;2023-06-22T10:40:03;26.50;99.90
16060;DHT22;8134;49.552;7.632;2023-06-22T10:42:33;26.60;99.90
16060;DHT22;8134;49.552;7.632;2023-06-22T10:44:58;26.80;99.90
16060;DHT22;8134;49.552;7.632;2023-06-22T10:47:24;27.00;99.90
16060;DHT22;8134;49.552;7.632;2023-06-22T10:49:49;27.20;99.90
16060;DHT22;8134;49.552;7.632;2023-06-22T10:52:15;27.40;99.90
16060;DHT22;8134;49.552;7.632;2023-06-22T10:54:40;27.60;99.90
16060;DHT22;8134;49.552;7.632;2023-06-22T10:57:06;27.70;99.90
16060;DHT22;8134;49.552;7.632;2023-06-22T10:59:32;27.80;99.90
16060;DHT22;8134;49.552;7.632;2023-06-22T11:01:58;27.90;99.90
16060;DHT22;8134;49.552;7.632;2023-06-22T11:04:23;28.00;99.90
16060;DHT22;8134;49.552;7.632;2023-06-22T11:06:49;28.10;99.90
16060;DHT22;8134;49.552;7.632;2023-06-22T11:09:15;28.10;99.90
16060;DHT22;8134;49.552;7.632;2023-06-22T11:11:46;28.20;98.60
16060;DHT22;8134;49.552;7.632;2023-06-22T11:14:11;28.20;98.60
16060;DHT22;8134;49.552;7.632;2023-06-22T11:16:37;28.30;98.20
16060;DHT22;8134;49.552;7.632;2023-06-22T11:19:04;28.50;98.20
16060;DHT22;8134;49.552;7.632;2023-06-22T11:21:30;28.80;97.90
16060;DHT22;8134;49.552;7.632;2023-06-22T11:23:55;29.10;97.00
16060;DHT22;8134;49.552;7.632;2023-06-22T11:26:21;29.40;97.00
16060;DHT22;8134;49.552;7.632;2023-06-22T11:28:48;29.60;95.90
16060;DHT22;8134;49.552;7.632;2023-06-22T11:31:14;29.70;94.90
16060;DHT22;8134;49.552;7.632;2023-06-22T11:33:39;29.70;95.70
16060;DHT22;8134;49.552;7.632;2023-06-22T11:36:05;29.60;95.40
16060;DHT22;8134;49.552;7.632;2023-06-22T11:38:31;29.70;95.70
16060;DHT22;8134;49.552;7.632;2023-06-22T11:40:57;29.60;94.20
16060;DHT22;8134;49.552;7.632;2023-06-22T11:43:23;29.60;94.00
16060;DHT22;8134;49.552;7.632;2023-06-22T11:45:49;29.60;94.20
16060;DHT22;8134;49.552;7.632;2023-06-22T11:48:15;29.70;94.70
16060;DHT22;8134;49.552;7.632;2023-06-22T11:50:42;29.70;94.40
16060;DHT22;8134;49.552;7.632;2023-06-22T11:53:07;29.80;93.80
16060;DHT22;8134;49.552;7.632;2023-06-22T11:55:34;29.70;93.50
16060;DHT22;8134;49.552;7.632;2023-06-22T11:58:00;29.60;94.30
16060;DHT22;8134;49.552;7.632;2023-06-22T12:00:29;29.60;93.70
16060;DHT22;8134;49.552;7.632;2023-06-22T12:02:59;29.60;93.60
16060;DHT22;8134;49.552;7.632;2023-06-22T12:05:30;29.60;93.90
16060;DHT22;8134;49.552;7.632;2023-06-22T12:07:56;29.70;94.50
16060;DHT22;8134;49.552;7.632;2023-06-22T12:13:30;29.90;93.90
16060;DHT22;8134;49.552;7.632;2023-06-22T12:15:55;29.90;93.20
16060;DHT22;8134;49.552;7.632;2023-06-22T12:18:39;30.00;94.70
16060;DHT22;8134;49.552;7.632;2023-06-22T12:24:28;30.00;92.90
16060;DHT22;8134;49.552;7.632;2023-06-22T12:27:12;29.90;92.80
16060;DHT22;8134;49.552;7.632;2023-06-22T12:29:48;29.90;92.80
16060;DHT22;8134;49.552;7.632;2023-06-22T12:32:18;29.90;93.10
16060;DHT22;8134;49.552;7.632;2023-06-22T12:34:44;29.90;92.90
16060;DHT22;8134;49.552;7.632;2023-06-22T12:37:09;29.90;92.20
16060;DHT22;8134;49.552;7.632;2023-06-22T12:42:38;29.90;92.10
16060;DHT22;8134;49.552;7.632;2023-06-22T12:45:04;29.90;92.70
16060;DHT22;8134;49.552;7.632;2023-06-22T12:47:29;29.90;91.40
16060;DHT22;8134;49.552;7.632;2023-06-22T12:49:55;30.10;92.10
16060;DHT22;8134;49.552;7.632;2023-06-22T12:52:30;30.30;90.80
16060;DHT22;8134;49.552;7.632;2023-06-22T12:55:21;30.40;91.60
16060;DHT22;8134;49.552;7.632;2023-06-22T12:58:11;30.50;91.00
16060;DHT22;8134;49.552;7.632;2023-06-22T13:00:50;30.60;91.60
16060;DHT22;8134;49.552;7.632;2023-06-22T13:03:46;30.60;90.80
16060;DHT22;8134;49.552;7.632;2023-06-22T13:09:56;30.60;90.50
16060;DHT22;8134;49.552;7.632;2023-06-22T13:12:22;30.60;90.30
16060;DHT22;8134;49.552;7.632;2023-06-22T13:14:48;30.70;90.50
16060;DHT22;8134;49.552;7.632;2023-06-22T13:17:26;30.80;90.30
16060;DHT22;8134;49.552;7.632;2023-06-22T13:20:18;30.90;89.50
16060;DHT22;8134;49.552;7.632;2023-06-22T13:22:44;30.90;86.50
16060;DHT22;8134;49.552;7.632;2023-06-22T13:25:09;31.00;87.00
16060;DHT22;8134;49.552;7.632;2023-06-22T13:27:40;31.10;84.50
16060;DHT22;8134;49.552;7.632;2023-06-22T13:30:06;31.10;86.50
16060;DHT22;8134;49.552;7.632;2023-06-22T13:32:32;31.10;87.30
16060;DHT22;8134;49.552;7.632;2023-06-22T13:34:57;31.10;85.00
16060;DHT22;8134;49.552;7.632;2023-06-22T13:37:25;31.20;84.90
16060;DHT22;8134;49.552;7.632;2023-06-22T13:39:50;31.30;84.60
16060;DHT22;8134;49.552;7.632;2023-06-22T13:42:16;31.30;83.90
16060;DHT22;8134;49.552;7.632;2023-06-22T13:44:41;31.30;83.40
16060;DHT22;8134;49.552;7.632;2023-06-22T13:47:07;31.40;82.20
16060;DHT22;8134;49.552;7.632;2023-06-22T13:49:32;31.50;83.00
16060;DHT22;8134;49.552;7.632;2023-06-22T13:51:58;31.40;82.20
16060;DHT22;8134;49.552;7.632;2023-06-22T13:54:24;31.40;82.10
16060;DHT22;8134;49.552;7.632;2023-06-22T13:56:49;31.30;82.10
16060;DHT22;8134;49.552;7.632;2023-06-22T13:59:15;31.30;82.10
16060;DHT22;8134;49.552;7.632;2023-06-22T14:01:40;31.40;83.30
16060;DHT22;8134;49.552;7.632;2023-06-22T14:04:07;31.50;83.30
16060;DHT22;8134;49.552;7.632;2023-06-22T14:06:32;31.50;84.00
16060;DHT22;8134;49.552;7.632;2023-06-22T14:08:58;31.60;84.90
16060;DHT22;8134;49.552;7.632;2023-06-22T14:11:24;31.70;83.10
16060;DHT22;8134;49.552;7.632;2023-06-22T14:13:50;31.70;82.20
16060;DHT22;8134;49.552;7.632;2023-06-22T14:16:15;31.80;83.40
16060;DHT22;8134;49.552;7.632;2023-06-22T14:18:41;31.80;81.00
16060;DHT22;8134;49.552;7.632;2023-06-22T14:21:07;31.80;78.90
16060;DHT22;8134;49.552;7.632;2023-06-22T14:23:32;31.70;77.50
16060;DHT22;8134;49.552;7.632;2023-06-22T14:25:58;31.70;78.40
16060;DHT22;8134;49.552;7.632;2023-06-22T14:28:23;31.70;77.00
16060;DHT22;8134;49.552;7.632;2023-06-22T14:30:49;31.70;76.90
16060;DHT22;8134;49.552;7.632;2023-06-22T14:33:14;31.70;76.20
16060;DHT22;8134;49.552;7.632;2023-06-22T14:35:40;31.80;76.80
16060;DHT22;8134;49.552;7.632;2023-06-22T14:38:05;31.90;76.80
16060;DHT22;8134;49.552;7.632;2023-06-22T14:40:31;31.90;76.70
16060;DHT22;8134;49.552;7.632;2023-06-22T14:42:56;31.90;75.80
16060;DHT22;8134;49.552;7.632;2023-06-22T14:45:22;31.70;76.00
16060;DHT22;8134;49.552;7.632;2023-06-22T14:47:48;31.50;75.50
16060;DHT22;8134;49.552;7.632;2023-06-22T14:50:13;31.30;76.00
16060;DHT22;8134;49.552;7.632;2023-06-22T14:52:39;31.10;76.80
16060;DHT22;8134;49.552;7.632;2023-06-22T14:55:04;30.90;83.40
16060;DHT22;8134;49.552;7.632;2023-06-22T14:57:30;30.60;86.60
16060;DHT22;8134;49.552;7.632;2023-06-22T14:59:55;30.40;87.30
16060;DHT22;8134;49.552;7.632;2023-06-22T15:02:21;30.40;86.40
16060;DHT22;8134;49.552;7.632;2023-06-22T15:04:50;30.60;85.10
16060;DHT22;8134;49.552;7.632;2023-06-22T15:07:15;30.90;85.00
16060;DHT22;8134;49.552;7.632;2023-06-22T15:09:41;31.10;83.50
16060;DHT22;8134;49.552;7.632;2023-06-22T15:12:08;31.30;82.90
16060;DHT22;8134;49.552;7.632;2023-06-22T15:14:39;31.30;77.00
16060;DHT22;8134;49.552;7.632;2023-06-22T15:17:05;31.40;75.00
16060;DHT22;8134;49.552;7.632;2023-06-22T15:19:31;31.50;77.20
16060;DHT22;8134;49.552;7.632;2023-06-22T15:21:56;31.60;76.00
16060;DHT22;8134;49.552;7.632;2023-06-22T15:24:22;31.40;73.70
16060;DHT22;8134;49.552;7.632;2023-06-22T15:26:47;31.30;75.10
16060;DHT22;8134;49.552;7.632;2023-06-22T15:29:13;31.20;71.20
16060;DHT22;8134;49.552;7.632;2023-06-22T15:31:38;31.00;71.60
16060;DHT22;8134;49.552;7.632;2023-06-22T15:34:04;30.90;72.30
16060;DHT22;8134;49.552;7.632;2023-06-22T15:36:29;31.00;70.70
16060;DHT22;8134;49.552;7.632;2023-06-22T15:38:55;31.10;69.40
16060;DHT22;8134;49.552;7.632;2023-06-22T15:41:20;31.30;69.50
16060;DHT22;8134;49.552;7.632;2023-06-22T15:43:46;31.30;68.50
16060;DHT22;8134;49.552;7.632;2023-06-22T15:46:12;31.30;68.30
16060;DHT22;8134;49.552;7.632;2023-06-22T15:48:37;31.30;68.30
16060;DHT22;8134;49.552;7.632;2023-06-22T15:51:03;31.40;68.30
16060;DHT22;8134;49.552;7.632;2023-06-22T15:53:29;31.40;68.90
16060;DHT22;8134;49.552;7.632;2023-06-22T15:55:54;31.40;68.00
16060;DHT22;8134;49.552;7.632;2023-06-22T15:58:20;31.40;68.30
16060;DHT22;8134;49.552;7.632;2023-06-22T16:00:45;31.40;68.50
16060;DHT22;8134;49.552;7.632;2023-06-22T16:03:14;31.50;68.80
16060;DHT22;8134;49.552;7.632;2023-06-22T16:05:39;31.50;70.40
16060;DHT22;8134;49.552;7.632;2023-06-22T16:08:08;31.50;70.70
16060;DHT22;8134;49.552;7.632;2023-06-22T16:10:36;31.40;71.00
16060;DHT22;8134;49.552;7.632;2023-06-22T16:13:02;31.30;71.10
16060;DHT22;8134;49.552;7.632;2023-06-22T16:15:27;31.30;70.80
16060;DHT22;8134;49.552;7.632;2023-06-22T16:17:53;31.50;72.40
16060;DHT22;8134;49.552;7.632;2023-06-22T16:20:18;31.60;71.90
16060;DHT22;8134;49.552;7.632;2023-06-22T16:22:46;31.60;71.80
16060;DHT22;8134;49.552;7.632;2023-06-22T16:25:12;31.60;71.50
16060;DHT22;8134;49.552;7.632;2023-06-22T16:27:38;31.40;69.70
16060;DHT22;8134;49.552;7.632;2023-06-22T16:30:05;31.30;70.30
16060;DHT22;8134;49.552;7.632;2023-06-22T16:32:31;31.20;70.90
16060;DHT22;8134;49.552;7.632;2023-06-22T16:34:56;31.20;71.90
16060;DHT22;8134;49.552;7.632;2023-06-22T16:37:22;31.20;70.70
16060;DHT22;8134;49.552;7.632;2023-06-22T16:39:47;31.30;71.70
16060;DHT22;8134;49.552;7.632;2023-06-22T16:42:13;31.20;71.60
16060;DHT22;8134;49.552;7.632;2023-06-22T16:44:38;31.10;70.90
16060;DHT22;8134;49.552;7.632;2023-06-22T16:47:04;31.00;71.50
16060;DHT22;8134;49.552;7.632;2023-06-22T16:49:30;31.10;73.20
16060;DHT22;8134;49.552;7.632;2023-06-22T16:51:55;31.00;71.80
16060;DHT22;8134;49.552;7.632;2023-06-22T16:54:21;31.00;73.30
16060;DHT22;8134;49.552;7.632;2023-06-22T16:56:47;30.90;73.40
16060;DHT22;8134;49.552;7.632;2023-06-22T16:59:13;30.80;72.90
16060;DHT22;8134;49.552;7.632;2023-06-22T17:01:52;30.80;73.20
16060;DHT22;8134;49.552;7.632;2023-06-22T17:04:20;30.80;74.50
16060;DHT22;8134;49.552;7.632;2023-06-22T17:06:47;30.80;74.60
16060;DHT22;8134;49.552;7.632;2023-06-22T17:09:13;30.80;74.80
16060;DHT22;8134;49.552;7.632;2023-06-22T17:11:39;30.70;75.30
16060;DHT22;8134;49.552;7.632;2023-06-22T17:14:05;30.60;76.10
16060;DHT22;8134;49.552;7.632;2023-06-22T17:16:31;30.40;76.20
16060;DHT22;8134;49.552;7.632;2023-06-22T17:18:57;30.20;76.60
16060;DHT22;8134;49.552;7.632;2023-06-22T17:21:24;30.20;77.60
16060;DHT22;8134;49.552;7.632;2023-06-22T17:23:52;30.20;78.00
16060;DHT22;8134;49.552;7.632;2023-06-22T17:26:19;30.30;79.20
16060;DHT22;8134;49.552;7.632;2023-06-22T17:28:49;30.30;77.70
16060;DHT22;8134;49.552;7.632;2023-06-22T17:31:15;30.30;78.60
16060;DHT22;8134;49.552;7.632;2023-06-22T17:33:40;30.20;78.50
16060;DHT22;8134;49.552;7.632;2023-06-22T17:36:12;30.00;78.90
16060;DHT22;8134;49.552;7.632;2023-06-22T17:38:38;29.80;80.10
16060;DHT22;8134;49.552;7.632;2023-06-22T17:41:04;29.60;81.10
16060;DHT22;8134;49.552;7.632;2023-06-22T17:43:29;29.50;82.00
16060;DHT22;8134;49.552;7.632;2023-06-22T17:45:58;29.40;82.70
16060;DHT22;8134;49.552;7.632;2023-06-22T17:48:29;29.30;83.10
16060;DHT22;8134;49.552;7.632;2023-06-22T17:50:55;29.20;83.70
16060;DHT22;8134;49.552;7.632;2023-06-22T17:53:21;29.10;83.60
16060;DHT22;8134;49.552;7.632;2023-06-22T17:55:51;28.90;84.20
16060;DHT22;8134;49.552;7.632;2023-06-22T17:58:17;28.90;84.50
16060;DHT22;8134;49.552;7.632;2023-06-22T18:00:43;28.80;84.00
16060;DHT22;8134;49.552;7.632;2023-06-22T19:12:40;25.00;93.10
16060;DHT22;8134;49.552;7.632;2023-06-22T19:15:09;25.10;93.40
16060;DHT22;8134;49.552;7.632;2023-06-22T19:17:41;25.20;93.20
16060;DHT22;8134;49.552;7.632;2023-06-22T19:20:06;25.30;93.30
16060;DHT22;8134;49.552;7.632;2023-06-22T19:25:18;25.60;92.90
16060;DHT22;8134;49.552;7.632;2023-06-22T19:27:45;25.70;92.70
16060;DHT22;8134;49.552;7.632;2023-06-22T19:30:10;25.70;93.00
16060;DHT22;8134;49.552;7.632;2023-06-22T19:32:36;25.70;93.20
16060;DHT22;8134;49.552;7.632;2023-06-22T19:35:02;25.60;92.80
16060;DHT22;8134;49.552;7.632;2023-06-22T19:37:28;25.60;92.80
16060;DHT22;8134;49.552;7.632;2023-06-22T19:39:54;25.60;92.70
16060;DHT22;8134;49.552;7.632;2023-06-22T19:42:19;25.50;92.50
16060;DHT22;8134;49.552;7.632;2023-06-22T19:44:45;25.50;92.30
16060;DHT22;8134;49.552;7.632;2023-06-22T19:47:10;25.40;92.40
16060;DHT22;8134;49.552;7.632;2023-06-22T19:49:36;25.40;92.40
16060;DHT22;8134;49.552;7.632;2023-06-22T19:52:05;25.40;92.40
16060;DHT22;8134;49.552;7.632;2023-06-22T19:54:31;25.20;92.40
16060;DHT22;8134;49.552;7.632;2023-06-22T19:56:56;25.20;92.80
16060;DHT22;8134;49.552;7.632;2023-06-22T19:59:22;25.20;92.80
16060;DHT22;8134;49.552;7.632;2023-06-22T20:01:48;25.30;92.70
16060;DHT22;8134;49.552;7.632;2023-06-22T20:04:13;25.10;92.70
16060;DHT22;8134;49.552;7.632;2023-06-22T20:06:39;25.10;92.70
16060;DHT22;8134;49.552;7.632;2023-06-22T20:09:06;25.00;92.70
16060;DHT22;8134;49.552;7.632;2023-06-22T20:11:33;24.90;92.80
16060;DHT22;8134;49.552;7.632;2023-06-22T20:13:59;24.90;92.80
16060;DHT22;8134;49.552;7.632;2023-06-22T20:16:25;25.00;93.00
16060;DHT22;8134;49.552;7.632;2023-06-22T20:21:31;24.90;93.00
16060;DHT22;8134;49.552;7.632;2023-06-22T20:24:06;24.90;93.00
16060;DHT22;8134;49.552;7.632;2023-06-22T20:26:39;24.90;93.00
16060;DHT22;8134;49.552;7.632;2023-06-22T20:34:50;24.80;93.10
16060;DHT22;8134;49.552;7.632;2023-06-22T20:37:16;24.70;93.30
16060;DHT22;8134;49.552;7.632;2023-06-22T20:39:43;24.60;93.40
16060;DHT22;8134;49.552;7.632;2023-06-22T20:42:09;24.60;93.50
16060;DHT22;8134;49.552;7.632;2023-06-22T20:44:37;24.70;93.40
16060;DHT22;8134;49.552;7.632;2023-06-22T20:47:02;24.50;93.30
16060;DHT22;8134;49.552;7.632;2023-06-22T20:49:28;24.40;93.40
16060;DHT22;8134;49.552;7.632;2023-06-22T20:51:54;24.40;93.50
16060;DHT22;8134;49.552;7.632;2023-06-22T20:54:19;24.30;93.70
16060;DHT22;8134;49.552;7.632;2023-06-22T20:56:45;24.10;94.00
16060;DHT22;8134;49.552;7.632;2023-06-22T20:59:11;24.00;94.20
16060;DHT22;8134;49.552;7.632;2023-06-22T21:01:37;23.90;94.20
16060;DHT22;8134;49.552;7.632;2023-06-22T21:04:02;23.90;94.50
16060;DHT22;8134;49.552;7.632;2023-06-22T21:06:28;24.00;94.50
16060;DHT22;8134;49.552;7.632;2023-06-22T21:08:53;24.10;94.60
16060;DHT22;8134;49.552;7.632;2023-06-22T21:11:19;24.10;94.20
16060;DHT22;8134;49.552;7.632;2023-06-22T21:13:45;24.20;94.20
16060;DHT22;8134;49.552;7.632;2023-06-22T21:16:10;24.20;94.20
16060;DHT22;8134;49.552;7.632;2023-06-22T21:18:37;24.10;94.40
16060;DHT22;8134;49.552;7.632;2023-06-22T21:21:02;24.10;94.40
16060;DHT22;8134;49.552;7.632;2023-06-22T21:23:28;24.10;94.30
16060;DHT22;8134;49.552;7.632;2023-06-22T21:25:53;24.00;94.40
16060;DHT22;8134;49.552;7.632;2023-06-22T21:28:19;24.00;94.50
16060;DHT22;8134;49.552;7.632;2023-06-22T21:30:44;23.90;94.60
16060;DHT22;8134;49.552;7.632;2023-06-22T21:33:10;23.80;94.70
16060;DHT22;8134;49.552;7.632;2023-06-22T21:35:35;23.70;94.80
16060;DHT22;8134;49.552;7.632;2023-06-22T21:38:01;23.70;95.00
16060;DHT22;8134;49.552;7.632;2023-06-22T21:40:27;23.70;95.00
16060;DHT22;8134;49.552;7.632;2023-06-22T21:42:52;23.70;94.90
16060;DHT22;8134;49.552;7.632;2023-06-22T21:45:18;23.70;94.90
16060;DHT22;8134;49.552;7.632;2023-06-22T21:47:44;23.70;94.90
16060;DHT22;8134;49.552;7.632;2023-06-22T21:50:09;23.70;94.70
16060;DHT22;8134;49.552;7.632;2023-06-22T21:52:36;23.60;94.80
16060;DHT22;8134;49.552;7.632;2023-06-22T21:55:01;23.70;94.70
16060;DHT22;8134;49.552;7.632;2023-06-22T21:57:27;23.80;94.60
16060;DHT22;8134;49.552;7.632;2023-06-22T21:59:53;23.80;94.30
16060;DHT22;8134;49.552;7.632;2023-06-22T22:02:19;23.80;94.40
16060;DHT22;8134;49.552;7.632;2023-06-22T22:04:45;23.80;94.10
16060;DHT22;8134;49.552;7.632;2023-06-22T22:07:10;23.70;94.10
16060;DHT22;8134;49.552;7.632;2023-06-22T22:09:36;23.70;94.00
16060;DHT22;8134;49.552;7.632;2023-06-22T22:12:01;23.70;94.00
16060;DHT22;8134;49.552;7.632;2023-06-22T22:14:27;23.60;94.30
16060;DHT22;8134;49.552;7.632;2023-06-22T22:16:53;23.50;93.80
16060;DHT22;8134;49.552;7.632;2023-06-22T22:19:19;23.40;94.00
16060;DHT22;8134;49.552;7.632;2023-06-22T22:21:45;23.20;94.10
16060;DHT22;8134;49.552;7.632;2023-06-22T22:24:11;23.10;94.20
16060;DHT22;8134;49.552;7.632;2023-06-22T22:26:36;23.00;94.30
16060;DHT22;8134;49.552;7.632;2023-06-22T22:29:03;23.00;94.30
16060;DHT22;8134;49.552;7.632;2023-06-22T22:31:28;23.00;94.40
16060;DHT22;8134;49.552;7.632;2023-06-22T22:33:54;23.00;94.00
16060;DHT22;8134;49.552;7.632;2023-06-22T22:36:19;22.90;94.10
16060;DHT22;8134;49.552;7.632;2023-06-22T22:38:45;23.00;93.90
16060;DHT22;8134;49.552;7.632;2023-06-22T22:41:10;23.00;93.80
16060;DHT22;8134;49.552;7.632;2023-06-22T22:43:36;23.00;93.50
16060;DHT22;8134;49.552;7.632;2023-06-22T22:46:02;23.00;93.60
16060;DHT22;8134;49.552;7.632;2023-06-22T22:48:27;23.10;93.30
16060;DHT22;8134;49.552;7.632;2023-06-22T22:50:57;23.20;93.60
16060;DHT22;8134;49.552;7.632;2023-06-22T22:53:22;23.20;93.00
16060;DHT22;8134;49.552;7.632;2023-06-22T22:55:48;23.20;92.80
16060;DHT22;8134;49.552;7.632;2023-06-22T22:58:13;23.20;92.90
16060;DHT22;8134;49.552;7.632;2023-06-22T23:00:38;23.20;93.00
16060;DHT22;8134;49.552;7.632;2023-06-22T23:03:04;23.20;92.80
16060;DHT22;8134;49.552;7.632;2023-06-22T23:05:29;23.20;92.90
16060;DHT22;8134;49.552;7.632;2023-06-22T23:07:55;23.10;92.60
16060;DHT22;8134;49.552;7.632;2023-06-22T23:10:20;23.00;93.00
16060;DHT22;8134;49.552;7.632;2023-06-22T23:12:46;23.00;92.80
16060;DHT22;8134;49.552;7.632;2023-06-22T23:15:13;23.00;93.10
16060;DHT22;8134;49.552;7.632;2023-06-22T23:17:38;22.90;93.20
16060;DHT22;8134;49.552;7.632;2023-06-22T23:20:04;22.90;93.10
16060;DHT22;8134;49.552;7.632;2023-06-22T23:22:33;22.80;93.50
16060;DHT22;8134;49.552;7.632;2023-06-22T23:24:59;22.80;93.80
16060;DHT22;8134;49.552;7.632;2023-06-22T23:27:24;22.70;94.50
16060;DHT22;8134;49.552;7.632;2023-06-22T23:29:50;22.60;95.40
16060;DHT22;8134;49.552;7.632;2023-06-22T23:32:16;22.40;95.50
16060;DHT22;8134;49.552;7.632;2023-06-22T23:34:42;22.30;95.80
16060;DHT22;8134;49.552;7.632;2023-06-22T23:37:09;22.10;96.50
16060;DHT22;8134;49.552;7.632;2023-06-22T23:39:34;22.00;96.60
16060;DHT22;8134;49.552;7.632;2023-06-22T23:42:00;21.90;96.80
16060;DHT22;8134;49.552;7.632;2023-06-22T23:44:25;21.90;97.00
16060;DHT22;8134;49.552;7.632;2023-06-22T23:46:52;21.90;97.10
16060;DHT22;8134;49.552;7.632;2023-06-22T23:49:18;22.00;97.10
16060;DHT22;8134;49.552;7.632;2023-06-22T23:51:43;21.90;97.10
16060;DHT22;8134;49.552;7.632;2023-06-22T23:54:09;22.00;97.10
16060;DHT22;8134;49.552;7.632;2023-06-22T23:56:34;22.00;97.20
16060;DHT22;8134;49.552;7.632;2023-06-22T23:59:01;22.10;96.80
